Time;durP1;ratioP1;P1;durP2;ratioP2;P2;SDS_P1;SDS_P2;PMS_P1;PMS_P2;Temp;Humidity;BMP_temperature;BMP_pressure;BME280_temperature;BME280_humidity;BME280_pressure;Samples;Min_cycle;Max_cycle;Signal;HPM_P1;HPM_P2
2022/07/15 00:02:36;;;;;;;3.78;1.35;;;;;;;15.78;65.85;101088.56;5153403;27;20049;-78
2022/07/15 00:05:45;;;;;;;4.20;1.58;;;;;;;15.76;66.41;101083.41;5153213;27;20046;-78
2022/07/15 00:08:50;;;;;;;4.15;1.63;;;;;;;15.88;65.96;101072.97;5153713;27;20042;-78
2022/07/15 00:11:58;;;;;;;5.63;1.63;;;;;;;16.01;64.28;101072.06;5153635;27;20042;-78
2022/07/15 00:15:04;;;;;;;10.75;2.22;;;;;;;15.68;65.88;101069.84;5140757;27;20513;-77
2022/07/15 00:18:08;;;;;;;5.82;1.90;;;;;;;15.68;65.76;101077.75;5153723;27;20073;-78
2022/07/15 00:21:14;;;;;;;9.55;2.00;;;;;;;15.78;65.42;101070.94;5153606;27;20435;-78
2022/07/15 00:24:21;;;;;;;5.68;1.75;;;;;;;15.81;65.13;101075.16;5153195;27;20095;-78
2022/07/15 00:27:26;;;;;;;3.65;1.35;;;;;;;15.40;66.61;101070.75;5153043;27;20106;-78
2022/07/15 00:30:45;;;;;;;3.50;1.58;;;;;;;15.36;66.92;101079.78;5140029;27;20041;-78
2022/07/15 00:33:51;;;;;;;6.43;1.42;;;;;;;15.35;67.04;101078.13;5140215;27;20041;-78
2022/07/15 00:37:16;;;;;;;5.10;1.70;;;;;;;15.26;67.38;101076.91;5152656;27;20046;-78
2022/07/15 00:40:22;;;;;;;6.53;2.20;;;;;;;15.20;67.59;101069.38;5139910;27;20102;-78
2022/07/15 00:43:28;;;;;;;6.32;2.00;;;;;;;15.06;67.73;101074.66;5152637;27;20046;-77
2022/07/15 00:46:35;;;;;;;6.38;1.70;;;;;;;14.96;68.07;101078.81;5140126;27;20079;-77
2022/07/15 00:49:44;;;;;;;5.65;2.05;;;;;;;15.03;67.84;101080.13;5153027;27;20091;-77
2022/07/15 00:52:55;;;;;;;6.80;1.80;;;;;;;14.95;67.94;101074.47;5152911;27;20046;-77
2022/07/15 00:56:04;;;;;;;4.60;1.63;;;;;;;14.90;68.31;101085.31;5152713;27;20048;-77
2022/07/15 00:59:10;;;;;;;5.30;1.88;;;;;;;14.89;68.08;101084.44;5139844;27;20045;-78
2022/07/15 01:02:16;;;;;;;7.22;1.80;;;;;;;15.01;67.26;101088.13;5152488;27;20040;-78
2022/07/15 01:05:24;;;;;;;5.18;2.03;;;;;;;14.79;68.04;101087.75;5152326;27;20049;-78
2022/07/15 01:08:30;;;;;;;5.55;1.75;;;;;;;14.99;66.86;101087.34;5151624;27;20081;-77
2022/07/15 01:16:18;;;;;;;5.72;1.75;;;;;;;14.82;67.66;101092.81;5132131;27;20038;-78
2022/07/15 01:19:23;;;;;;;6.35;1.45;;;;;;;14.75;67.46;101092.34;5118608;27;20461;-78
2022/07/15 01:22:29;;;;;;;4.40;1.75;;;;;;;14.98;66.10;101090.09;5130940;27;20092;-78
2022/07/15 01:25:34;;;;;;;4.70;1.58;;;;;;;14.75;67.58;101091.50;5118587;27;20104;-78
2022/07/15 01:28:44;;;;;;;4.05;1.50;;;;;;;14.55;68.26;101095.31;5118571;27;20132;-77
2022/07/15 01:31:51;;;;;;;4.57;1.90;;;;;;;14.55;68.33;101101.47;5118333;27;20041;-77
2022/07/15 01:34:56;;;;;;;8.20;1.42;;;;;;;14.37;69.11;101091.97;5130912;27;20127;-78
2022/07/15 01:38:10;;;;;;;4.45;1.98;;;;;;;14.31;69.58;101108.13;5126117;27;20045;-77
2022/07/15 01:41:26;;;;;;;4.97;1.80;;;;;;;14.29;69.36;101100.31;5139093;27;20514;-77
2022/07/15 01:44:31;;;;;;;4.13;1.38;;;;;;;14.39;68.66;101105.91;5139054;27;20705;-77
2022/07/15 01:47:49;;;;;;;5.40;1.65;;;;;;;14.57;68.04;101107.44;5151108;27;20081;-77
2022/07/15 01:51:15;;;;;;;4.18;1.52;;;;;;;14.25;66.85;101103.22;5138431;27;20082;-77
2022/07/15 01:54:22;;;;;;;3.60;1.40;;;;;;;14.30;68.32;101104.66;5151182;27;20087;-77
2022/07/15 01:57:29;;;;;;;6.38;1.50;;;;;;;14.28;69.01;101113.56;5151290;27;20053;-77
2022/07/15 02:00:36;;;;;;;6.20;1.83;;;;;;;14.15;69.61;101111.63;5138084;27;20046;-77
2022/07/15 02:03:45;;;;;;;4.72;1.58;;;;;;;14.28;69.28;101116.19;5138531;27;20050;-78
2022/07/15 02:06:50;;;;;;;5.95;2.20;;;;;;;14.14;69.62;101123.09;5137829;27;20053;-77
2022/07/15 02:09:57;;;;;;;4.90;1.58;;;;;;;14.06;69.91;101121.84;5137505;27;20083;-77
2022/07/15 02:13:14;;;;;;;7.38;2.45;;;;;;;14.04;70.17;101116.69;5138407;27;20164;-77
2022/07/15 02:16:22;;;;;;;8.43;2.22;;;;;;;13.95;70.39;101114.59;5138131;27;20406;-78
2022/07/15 02:19:29;;;;;;;6.90;1.73;;;;;;;13.91;70.72;101120.91;5137419;27;20540;-78
2022/07/15 02:22:37;;;;;;;3.28;1.20;;;;;;;14.02;69.02;101113.28;5138184;27;20038;-78
2022/07/15 02:25:46;;;;;;;4.35;1.52;;;;;;;14.30;68.11;101115.19;5137564;27;20045;-78
2022/07/15 02:28:51;;;;;;;6.70;1.83;;;;;;;14.15;69.02;101121.31;5137584;27;20045;-78
2022/07/15 02:31:56;;;;;;;4.50;1.70;;;;;;;14.01;70.16;101127.38;5138286;27;20107;-78
2022/07/15 02:35:01;;;;;;;4.60;1.30;;;;;;;13.94;70.43;101124.25;5138573;27;20632;-78
2022/07/15 02:38:07;;;;;;;4.22;1.50;;;;;;;13.92;70.52;101118.22;5138895;27;20115;-78
2022/07/15 02:41:12;;;;;;;5.20;1.92;;;;;;;13.87;70.45;101129.94;5137967;27;20098;-78
2022/07/15 02:44:18;;;;;;;4.75;1.77;;;;;;;13.64;71.54;101132.06;5137467;27;20094;-78
2022/07/15 02:47:42;;;;;;;;;;;;;;;;;;;;;
2022/07/15 02:50:50;;;;;;;;;;;;;;;13.86;71.16;101134.34;5138421;27;20042;-79
2022/07/15 02:54:06;;;;;;;4.43;1.63;;;;;;;13.93;70.88;101134.84;5137748;27;19925;-79
2022/07/15 02:57:13;;;;;;;9.05;1.67;;;;;;;13.81;71.50;101135.53;5138161;27;20127;-78
2022/07/15 03:00:21;;;;;;;5.20;2.10;;;;;;;13.78;71.99;101133.06;5137347;27;20110;-78
2022/07/15 03:03:29;;;;;;;3.83;1.63;;;;;;;13.74;72.09;101137.66;5137010;27;20152;-78
2022/07/15 03:06:35;;;;;;;5.05;1.83;;;;;;;13.77;71.98;101142.75;5150095;27;20090;-78
2022/07/15 03:09:40;;;;;;;7.15;1.80;;;;;;;13.82;71.66;101142.50;5138024;27;20049;-78
2022/07/15 03:12:47;;;;;;;6.38;1.83;;;;;;;13.79;72.09;101154.03;5138108;27;20126;-78
2022/07/15 03:15:52;;;;;;;7.30;2.13;;;;;;;13.68;72.79;101156.38;5137980;27;20087;-78
2022/07/15 03:18:57;;;;;;;7.20;2.03;;;;;;;13.69;72.97;101156.31;5137847;27;20113;-78
2022/07/15 03:22:03;;;;;;;6.32;1.58;;;;;;;13.77;72.72;101165.56;5136924;27;20119;-78
2022/07/15 03:25:12;;;;;;;5.57;2.13;;;;;;;13.88;72.17;101168.41;5137929;27;20093;-77
2022/07/15 04:36:40;;;;;;;6.03;1.95;;;;;;;13.87;73.65;101233.28;5109923;28;20046;-63
2022/07/15 04:39:45;;;;;;;4.80;1.70;;;;;;;13.79;73.33;101227.63;5110328;27;20089;-62
2022/07/15 04:42:51;;;;;;;3.63;1.60;;;;;;;13.73;74.08;101233.22;5089913;28;20127;-63
2022/07/15 04:46:01;;;;;;;4.65;1.80;;;;;;;13.62;75.03;101225.88;5101726;27;20042;-62
2022/07/15 04:52:35;;;;;;;5.53;1.63;;;;;;;13.78;74.43;101228.53;5093522;28;20409;-63
2022/07/15 05:31:55;;;;;;;7.03;1.85;;;;;;;14.20;71.63;101248.16;5104946;28;20603;-62
2022/07/15 05:35:00;;;;;;;6.82;1.73;;;;;;;14.50;70.27;101245.56;5116633;27;20105;-63
2022/07/15 05:38:05;;;;;;;6.10;1.90;;;;;;;14.53;70.37;101250.69;5090641;27;20085;-63
2022/07/15 05:41:12;;;;;;;4.70;1.45;;;;;;;14.14;72.06;101248.50;5115333;27;20097;-62
2022/07/15 05:44:16;;;;;;;5.97;1.60;;;;;;;14.36;71.46;101253.41;5115036;27;20128;-63
2022/07/15 05:47:25;;;;;;;3.80;1.75;;;;;;;14.71;69.82;101256.69;5098617;28;20046;-63
2022/07/15 05:50:29;;;;;;;5.63;1.73;;;;;;;14.89;68.67;101250.31;5106378;27;20069;-62
2022/07/15 05:53:44;;;;;;;5.80;1.50;;;;;;;14.52;69.46;101258.69;5129495;27;20142;-83
2022/07/15 05:56:49;;;;;;;7.82;1.92;;;;;;;14.74;69.06;101260.91;5115939;27;20081;-77
2022/07/15 05:59:59;;;;;;;5.80;1.60;;;;;;;14.97;68.36;101265.69;5116496;27;20099;-75
2022/07/15 06:03:07;;;;;;;6.00;1.90;;;;;;;15.06;68.30;101259.88;5129577;27;20046;-74
2022/07/15 06:06:17;;;;;;;6.15;1.55;;;;;;;15.32;67.08;101255.69;5128814;27;20054;-80
2022/07/15 06:09:24;;;;;;;3.45;1.10;;;;;;;15.25;67.12;101259.63;5137087;27;20079;-77
2022/07/15 06:12:34;;;;;;;6.28;1.70;;;;;;;15.26;67.52;101255.22;5095483;28;20046;-79
2022/07/15 06:15:49;;;;;;;4.70;1.63;;;;;;;15.61;66.14;101260.13;5096553;28;20089;-77
2022/07/15 06:19:01;;;;;;;5.28;1.35;;;;;;;15.57;66.25;101256.81;5096148;28;20043;-78
2022/07/15 06:22:06;;;;;;;6.05;1.65;;;;;;;15.45;66.41;101263.69;5108878;28;20493;-73
2022/07/15 06:25:14;;;;;;;5.75;1.52;;;;;;;15.64;66.10;101260.78;5125353;27;20053;-80
2022/07/15 06:33:14;;;;;;;5.38;1.30;;;;;;;15.93;66.82;101264.25;5061558;27;20146;-84
2022/07/15 07:04:45;;;;;;;6.22;1.80;;;;;;;16.55;64.38;101258.50;4328059;26;20444;-75
2022/07/15 07:07:50;;;;;;;5.78;1.30;;;;;;;16.76;63.41;101263.38;5113987;28;20053;-75
2022/07/15 07:10:54;;;;;;;7.75;1.80;;;;;;;16.50;63.60;101265.91;5116243;28;20038;-75
2022/07/15 07:13:59;;;;;;;10.50;2.42;;;;;;;16.47;63.76;101261.66;5127385;28;20424;-73
2022/07/15 07:17:03;;;;;;;6.18;1.67;;;;;;;16.62;62.83;101265.06;5130646;27;20484;-74
2022/07/15 07:20:07;;;;;;;8.90;2.13;;;;;;;16.96;62.83;101263.72;5130279;27;20433;-74
2022/07/15 07:23:13;;;;;;;7.47;2.03;;;;;;;17.34;61.27;101262.91;5130788;27;20516;-74
2022/07/15 07:26:17;;;;;;;6.68;2.00;;;;;;;17.35;61.68;101259.31;5131029;27;20401;-74
2022/07/15 07:29:24;;;;;;;4.43;1.80;;;;;;;17.51;60.33;101258.25;5119968;27;20038;-73
2022/07/15 07:32:27;;;;;;;10.65;2.38;;;;;;;17.51;59.86;101253.78;5130831;27;20076;-74
2022/07/15 07:35:31;;;;;;;5.70;1.92;;;;;;;17.66;60.27;101242.16;5132291;27;20058;-74
2022/07/15 07:38:36;;;;;;;6.55;1.75;;;;;;;18.13;59.35;101250.34;5119972;27;20072;-73
2022/07/15 07:41:39;;;;;;;6.55;2.13;;;;;;;17.80;56.14;101249.13;5132291;27;20110;-73
2022/07/15 07:44:42;;;;;;;6.05;1.85;;;;;;;17.66;57.18;101251.88;5128792;27;20038;-73
2022/07/15 07:47:47;;;;;;;3.88;1.48;;;;;;;17.63;57.05;101246.81;5119077;27;20794;-72
2022/07/15 07:50:53;;;;;;;5.57;1.80;;;;;;;17.63;56.41;101242.38;5133440;27;20095;-72
2022/07/15 07:53:56;;;;;;;11.13;2.30;;;;;;;17.57;55.86;101242.78;5132167;27;20057;-73
2022/07/15 07:56:59;;;;;;;6.25;1.83;;;;;;;17.90;55.89;101244.06;5132770;27;20062;-73
2022/07/15 08:00:03;;;;;;;10.90;1.92;;;;;;;17.50;56.92;101251.28;5133276;27;20519;-73
2022/07/15 08:03:15;;;;;;;7.82;2.28;;;;;;;17.39;57.59;101250.22;5116017;27;20086;-73
2022/07/15 08:06:19;;;;;;;4.78;1.50;;;;;;;17.31;58.00;101263.13;5118057;27;20053;-73
2022/07/15 08:09:22;;;;;;;7.93;1.60;;;;;;;17.51;57.19;101252.97;5129369;27;20068;-73
2022/07/15 08:12:26;;;;;;;6.45;1.52;;;;;;;17.47;56.48;101262.06;5120184;27;20099;-73
2022/07/15 08:15:29;;;;;;;5.00;1.30;;;;;;;17.36;56.65;101255.72;5132326;27;20050;-73
2022/07/15 08:18:33;;;;;;;7.70;1.75;;;;;;;17.41;55.88;101258.88;5132544;27;20050;-73
2022/07/15 08:21:36;;;;;;;4.72;1.55;;;;;;;17.64;56.52;101259.06;5119584;27;20049;-73
2022/07/15 08:24:40;;;;;;;5.95;1.52;;;;;;;17.62;56.47;101255.72;5131709;27;20131;-73
2022/07/15 08:27:44;;;;;;;9.95;1.45;;;;;;;17.72;56.57;101254.09;5132838;27;20661;-73
2022/07/15 08:30:47;;;;;;;5.93;1.50;;;;;;;17.87;55.06;101255.69;5132130;27;20038;-72
2022/07/15 08:33:52;;;;;;;6.95;1.52;;;;;;;17.92;55.28;101252.72;5132245;27;20042;-74
2022/07/15 08:36:56;;;;;;;4.93;1.60;;;;;;;18.35;53.79;101233.72;5131050;27;20096;-74
2022/07/15 08:40:00;;;;;;;6.20;1.60;;;;;;;18.65;52.67;101241.19;5132125;27;20038;-75
2022/07/15 08:43:09;;;;;;;6.18;1.67;;;;;;;18.62;52.35;101236.13;5129120;27;20046;-74
2022/07/15 08:46:14;;;;;;;4.45;1.58;;;;;;;18.64;51.67;101242.16;5124076;27;20050;-73
2022/07/15 08:49:19;;;;;;;6.65;1.60;;;;;;;18.18;51.55;101244.69;5099475;28;20085;-74
2022/07/15 08:52:24;;;;;;;6.80;1.60;;;;;;;18.18;52.43;101242.88;5115096;27;20038;-74
2022/07/15 08:55:28;;;;;;;6.50;1.50;;;;;;;18.99;52.54;101233.38;5131684;27;20095;-73
2022/07/15 08:58:36;;;;;;;4.82;1.63;;;;;;;19.02;49.61;101233.16;5131651;27;20050;-75
2022/07/15 09:01:45;;;;;;;5.03;1.90;;;;;;;19.00;50.70;101224.47;5131471;27;20069;-74
2022/07/15 09:05:32;;;;;;;8.45;1.60;;;;;;;19.27;52.21;101237.38;5130352;27;20108;-75
2022/07/15 09:08:36;;;;;;;6.35;1.65;;;;;;;18.86;50.84;101243.19;5130088;27;20058;-75
2022/07/15 09:11:40;;;;;;;7.65;2.53;;;;;;;18.89;50.85;101243.84;5131731;27;20038;-72
2022/07/15 09:14:47;;;;;;;5.65;1.90;;;;;;;18.68;51.16;101232.16;5131734;27;20041;-73
2022/07/15 09:18:12;;;;;;;4.30;1.40;;;;;;;18.78;50.74;101241.97;5129907;27;20053;-74
2022/07/15 09:21:26;;;;;;;5.28;1.60;;;;;;;18.60;51.53;101232.72;5131485;27;20047;-72
2022/07/15 09:24:29;;;;;;;7.72;1.90;;;;;;;18.66;50.14;101226.97;5131291;27;20475;-72
2022/07/15 09:27:37;;;;;;;5.80;1.58;;;;;;;18.74;49.21;101235.22;5130334;27;20058;-72
2022/07/15 09:34:04;;;;;;;7.25;1.52;;;;;;;18.78;49.22;101231.38;5129609;27;20151;-72
2022/07/15 09:37:08;;;;;;;4.63;1.92;;;;;;;18.87;49.61;101231.66;5129189;27;20092;-72
2022/07/15 09:40:11;;;;;;;4.90;1.20;;;;;;;18.95;48.22;101223.94;5130041;27;20526;-74
2022/07/15 09:43:14;;;;;;;4.80;1.60;;;;;;;19.25;47.02;101226.06;5125321;27;20683;-71
2022/07/15 09:46:20;;;;;;;7.32;1.80;;;;;;;19.14;45.47;101223.38;5117430;27;20078;-72
2022/07/15 09:49:24;;;;;;;8.75;2.30;;;;;;;19.59;45.24;101216.31;5109731;28;20096;-73
2022/07/15 09:52:45;;;;;;;5.18;1.70;;;;;;;19.67;44.39;101216.56;5109853;28;20099;-74
2022/07/15 09:55:49;;;;;;;4.00;1.88;;;;;;;19.45;44.23;101219.19;5097486;28;20049;-74
2022/07/15 09:58:53;;;;;;;4.78;1.58;;;;;;;19.72;44.30;101219.69;5116053;27;20039;-74
2022/07/15 10:01:59;;;;;;;5.70;1.80;;;;;;;20.17;44.28;101216.94;5130686;27;20053;-73
2022/07/15 10:05:03;;;;;;;5.22;1.80;;;;;;;19.56;43.01;101231.59;5130287;27;20054;-74
2022/07/15 10:08:11;;;;;;;3.95;1.92;;;;;;;19.33;44.35;101222.81;5129848;27;20545;-73
2022/07/15 10:11:15;;;;;;;4.68;1.63;;;;;;;19.72;44.13;101230.31;5127632;27;20123;-73
2022/07/15 10:14:37;;;;;;;6.93;1.55;;;;;;;19.61;44.61;101224.97;5109097;28;20046;-73
2022/07/15 10:17:44;;;;;;;5.37;1.57;;;;;;;19.51;45.22;101227.50;5108491;28;20130;-74
2022/07/15 10:21:15;;;;;;;5.57;1.67;;;;;;;19.50;44.65;101232.94;5108675;28;20070;-75
2022/07/15 10:24:26;;;;;;;4.72;1.42;;;;;;;19.87;44.32;101212.31;5110690;28;20074;-74
2022/07/15 10:27:51;;;;;;;10.38;2.00;;;;;;;19.62;43.94;101216.06;5126997;27;20046;-74
2022/07/15 10:31:25;;;;;;;3.78;1.65;;;;;;;19.96;42.86;101229.31;5129954;27;20076;-74
2022/07/15 10:34:33;;;;;;;5.05;1.50;;;;;;;19.94;43.16;101223.25;5129195;27;20514;-74
2022/07/15 10:37:37;;;;;;;6.82;1.70;;;;;;;19.78;42.92;101214.84;5109008;28;20088;-74
2022/07/15 10:41:06;;;;;;;4.80;1.48;;;;;;;19.79;43.84;101221.88;5123516;27;20099;-74
2022/07/15 10:44:10;;;;;;;4.30;1.20;;;;;;;19.18;42.58;101222.22;5109228;28;20104;-73
2022/07/15 10:47:14;;;;;;;4.28;0.90;;;;;;;18.99;43.50;101220.13;5125824;28;20054;-72
2022/07/15 10:50:38;;;;;;;6.10;1.48;;;;;;;19.18;43.27;101220.41;5130607;27;20413;-72
2022/07/15 10:53:46;;;;;;;3.95;1.10;;;;;;;19.28;43.33;101218.72;5133119;27;20095;-73
2022/07/15 10:56:50;;;;;;;6.55;0.80;;;;;;;19.31;42.50;101214.16;5133027;27;20057;-72
2022/07/15 10:59:55;;;;;;;5.40;1.23;;;;;;;19.50;43.39;101207.25;5132578;27;20054;-73
2022/07/15 11:03:14;;;;;;;3.30;1.27;;;;;;;19.55;43.10;101198.94;5120916;27;20092;-72
2022/07/15 11:06:17;;;;;;;4.90;1.35;;;;;;;19.45;41.79;101193.50;5133070;27;20050;-73
2022/07/15 11:09:50;;;;;;;7.13;1.80;;;;;;;19.68;40.81;101190.88;5117709;27;20045;-72
2022/07/15 11:12:53;;;;;;;4.68;1.30;;;;;;;19.88;40.73;101183.97;5133856;27;20046;-73
2022/07/15 11:16:01;;;;;;;4.97;1.35;;;;;;;20.39;40.25;101178.00;5133304;27;20508;-73
2022/07/15 11:19:10;;;;;;;5.47;1.15;;;;;;;20.52;40.38;101186.66;5133786;27;20123;-72
2022/07/15 11:22:17;;;;;;;3.33;0.77;;;;;;;20.51;40.70;101176.13;5132667;27;20084;-73
2022/07/15 11:25:26;;;;;;;5.65;1.08;;;;;;;20.24;39.86;101184.59;5133714;27;20053;-73
2022/07/15 11:28:30;;;;;;;3.33;0.90;;;;;;;20.04;40.88;101175.59;5135032;27;20057;-73
2022/07/15 11:31:39;;;;;;;4.10;1.13;;;;;;;20.34;39.99;101177.53;5131031;27;20073;-74
2022/07/15 11:34:46;;;;;;;5.63;0.95;;;;;;;20.40;38.45;101167.25;5119422;27;20049;-73
2022/07/15 11:37:58;;;;;;;4.32;0.90;;;;;;;20.93;39.00;101169.03;5110071;27;20042;-73
2022/07/15 11:44:32;;;;;;;4.95;0.90;;;;;;;21.27;37.33;101174.06;5132319;27;20046;-72
2022/07/15 11:47:51;;;;;;;2.25;0.70;;;;;;;21.20;36.79;101163.13;5130585;27;20034;-72
2022/07/15 11:50:56;;;;;;;4.15;0.98;;;;;;;20.99;35.98;101155.19;5116260;27;20084;-73
2022/07/15 11:54:00;;;;;;;2.97;1.00;;;;;;;21.38;37.26;101166.03;5130795;27;20042;-72
2022/07/15 11:57:07;;;;;;;5.95;1.00;;;;;;;21.53;37.19;101175.31;5132645;27;20049;-73
2022/07/15 12:00:11;;;;;;;3.25;1.02;;;;;;;21.31;36.59;101164.84;5130132;27;20107;-73
2022/07/15 12:03:17;;;;;;;6.82;1.30;;;;;;;21.62;37.80;101172.81;5127986;27;20545;-72
2022/07/15 12:06:22;;;;;;;4.00;0.98;;;;;;;21.76;38.13;101169.75;5131522;27;20192;-73
2022/07/15 12:09:27;;;;;;;5.65;0.90;;;;;;;21.85;36.96;101168.94;5118802;27;20038;-73
2022/07/15 12:12:30;;;;;;;6.38;0.90;;;;;;;21.76;36.59;101175.09;5110693;28;20092;-73
2022/07/15 12:15:36;;;;;;;6.05;1.00;;;;;;;20.93;36.84;101171.69;5131322;27;20079;-73
2022/07/15 12:18:41;;;;;;;2.95;1.00;;;;;;;20.93;37.12;101174.34;5131350;27;20167;-73
2022/07/15 12:21:51;;;;;;;3.22;0.77;;;;;;;20.96;36.32;101170.56;5134231;27;20172;-73
2022/07/15 12:25:04;;;;;;;3.83;1.08;;;;;;;21.02;36.24;101159.41;5131218;27;20038;-73
2022/07/15 12:28:08;;;;;;;2.92;0.70;;;;;;;21.63;36.39;101167.34;5129023;27;20087;-73
2022/07/15 12:31:11;;;;;;;3.00;0.88;;;;;;;21.56;35.37;101171.53;5130309;27;20050;-75
2022/07/15 12:34:18;;;;;;;3.10;0.90;;;;;;;20.98;36.06;101166.81;5129748;27;20050;-75
2022/07/15 12:37:25;;;;;;;4.47;1.42;;;;;;;21.24;36.07;101169.03;5130983;27;20635;-74
2022/07/15 12:40:28;;;;;;;4.22;1.13;;;;;;;21.48;34.76;101158.94;5128735;27;20067;-76
2022/07/15 12:43:56;;;;;;;6.30;1.10;;;;;;;21.58;34.54;101151.81;5127768;27;20050;-76
2022/07/15 12:47:06;;;;;;;4.38;1.17;;;;;;;22.24;34.51;101153.88;5129889;27;20504;-76
2022/07/15 12:50:11;;;;;;;3.30;1.05;;;;;;;22.16;33.97;101143.09;5129351;27;20041;-76
2022/07/15 12:53:16;;;;;;;3.88;1.33;;;;;;;22.20;34.25;101148.97;5129888;27;20597;-77
2022/07/15 12:56:19;;;;;;;4.35;1.23;;;;;;;22.13;34.13;101148.66;5129803;27;20046;-75
2022/07/15 12:59:23;;;;;;;4.63;1.20;;;;;;;22.26;33.87;101151.06;5130196;27;20049;-75
2022/07/15 13:02:28;;;;;;;5.85;0.98;;;;;;;22.25;33.88;101152.06;5131309;27;20042;-74
2022/07/15 13:05:42;;;;;;;4.00;1.42;;;;;;;22.47;33.90;101143.78;5128325;27;20151;-77
2022/07/15 13:08:46;;;;;;;3.70;0.90;;;;;;;22.78;31.97;101140.88;5130777;27;20054;-76
2022/07/15 13:12:00;;;;;;;4.38;1.13;;;;;;;23.18;32.05;101150.47;5131275;27;20066;-74
2022/07/15 13:15:05;;;;;;;4.13;1.08;;;;;;;23.62;32.06;101156.84;5129465;27;20546;-75
2022/07/15 13:18:13;;;;;;;6.32;1.23;;;;;;;23.70;31.35;101150.78;5128247;27;20050;-74
2022/07/15 13:21:16;;;;;;;3.80;1.10;;;;;;;22.86;31.48;101138.34;5128479;27;20397;-74
2022/07/15 13:24:19;;;;;;;3.47;0.90;;;;;;;23.61;31.44;101138.31;5126637;27;20510;-77
2022/07/15 13:27:23;;;;;;;7.03;1.20;;;;;;;23.37;30.92;101145.03;5125579;27;20046;-75
2022/07/15 13:30:27;;;;;;;3.67;0.93;;;;;;;24.26;30.89;101141.66;5129659;27;20099;-77
2022/07/15 13:33:31;;;;;;;3.17;0.80;;;;;;;23.57;31.24;101134.25;5117393;27;20070;-74
2022/07/15 13:36:36;;;;;;;5.82;1.00;;;;;;;24.70;30.11;101130.97;5129535;27;20170;-75
2022/07/15 13:39:39;;;;;;;3.72;1.00;;;;;;;24.60;28.78;101138.25;5130292;27;20493;-75
2022/07/15 13:42:43;;;;;;;3.67;1.08;;;;;;;23.43;30.98;101141.78;5129139;27;20045;-76
2022/07/15 13:45:49;;;;;;;5.32;1.45;;;;;;;23.58;31.40;101133.25;5127893;27;20035;-77
2022/07/15 13:48:52;;;;;;;3.78;1.00;;;;;;;24.13;29.93;101133.19;5129844;27;20042;-76
2022/07/15 13:51:56;;;;;;;5.47;1.50;;;;;;;23.99;29.76;101131.03;5125855;27;20709;-75
2022/07/15 13:55:02;;;;;;;6.32;1.52;;;;;;;24.43;29.76;101133.78;5129812;27;20071;-76
2022/07/15 13:59:00;;;;;;;3.83;1.30;;;;;;;25.11;27.05;101125.88;5115173;27;20042;-76
2022/07/15 14:02:09;;;;;;;4.20;1.00;;;;;;;25.33;28.12;101112.91;5128481;27;20046;-75
2022/07/15 14:05:13;;;;;;;2.42;0.70;;;;;;;26.73;25.23;101115.56;5114817;27;20120;-78
2022/07/15 14:08:17;;;;;;;4.60;1.08;;;;;;;26.07;27.09;101113.91;5127999;27;20042;-78
2022/07/15 14:11:20;;;;;;;3.30;1.33;;;;;;;26.98;24.25;101128.91;5128682;27;20055;-79
2022/07/15 14:14:26;;;;;;;3.72;1.30;;;;;;;25.63;25.99;101125.72;5113896;27;20549;-79
2022/07/15 14:17:29;;;;;;;5.82;1.35;;;;;;;28.14;23.64;101118.22;5125235;27;20402;-78
2022/07/15 14:20:36;;;;;;;4.95;1.30;;;;;;;30.30;20.73;101121.44;5125814;27;20041;-79
2022/07/15 14:23:40;;;;;;;3.47;1.20;;;;;;;33.32;19.08;101113.53;5125758;27;20050;-76
2022/07/15 14:26:46;;;;;;;9.30;1.98;;;;;;;34.22;17.50;101102.53;5123037;27;20045;-79
2022/07/15 14:29:53;;;;;;;9.70;3.38;;;;;;;34.03;17.17;101098.09;5125991;27;20493;-78
2022/07/15 14:32:57;;;;;;;13.05;9.88;;;;;;;32.70;18.68;101114.13;5126340;27;20083;-78
2022/07/15 14:36:01;;;;;;;12.68;10.93;;;;;;;32.19;18.57;101105.63;5128095;27;20045;-78
2022/07/15 14:39:04;;;;;;;6.45;2.60;;;;;;;33.28;17.44;101106.03;5126010;27;20057;-78
2022/07/15 14:42:08;;;;;;;7.18;2.40;;;;;;;35.30;16.07;101100.34;5125982;28;20572;-80
2022/07/15 14:45:12;;;;;;;7.88;3.95;;;;;;;36.72;17.44;101094.88;5122473;27;20133;-79
2022/07/15 14:48:16;;;;;;;3.47;1.50;;;;;;;33.21;16.85;101097.09;5127393;28;20531;-80
2022/07/15 14:51:20;;;;;;;3.45;1.50;;;;;;;32.23;18.12;101102.50;5127550;28;20111;-78
2022/07/15 14:54:27;;;;;;;3.78;1.55;;;;;;;31.27;19.32;101096.28;5125544;28;20038;-79
2022/07/15 14:57:51;;;;;;;3.42;1.25;;;;;;;34.47;16.20;101091.63;5126654;28;20046;-79
2022/07/15 15:01:00;;;;;;;3.13;1.23;;;;;;;34.26;15.93;101090.16;5126450;28;20149;-80
2022/07/15 15:09:27;;;;;;;2.88;1.20;;;;;;;33.62;17.65;101082.31;5086863;28;20094;-80
2022/07/15 15:12:39;;;;;;;4.03;1.25;;;;;;;30.58;19.79;101080.97;5085981;28;20525;-79
2022/07/15 15:15:44;;;;;;;4.25;1.30;;;;;;;30.30;20.36;101091.75;5087212;28;20121;-80
2022/07/15 15:18:49;;;;;;;3.83;1.60;;;;;;;32.64;18.10;101084.16;5077166;28;20109;-79
2022/07/15 15:21:55;;;;;;;5.97;3.20;;;;;;;30.65;20.29;101091.78;5085721;28;20139;-79
2022/07/15 15:24:58;;;;;;;3.80;1.85;;;;;;;29.56;21.00;101086.69;5085761;28;20403;-79
2022/07/15 15:28:02;;;;;;;5.45;1.50;;;;;;;29.30;20.83;101079.16;5085015;28;20090;-79
2022/07/15 15:31:06;;;;;;;3.25;1.13;;;;;;;31.19;18.67;101080.25;5086668;28;20047;-79
2022/07/15 15:34:12;;;;;;;12.05;3.95;;;;;;;30.81;20.08;101078.00;5085549;28;20054;-79
2022/07/15 15:37:17;;;;;;;3.03;1.13;;;;;;;29.87;20.11;101085.59;5076013;28;20414;-78
2022/07/15 15:40:21;;;;;;;3.38;1.17;;;;;;;30.31;20.53;101077.28;5088362;28;20070;-78
2022/07/15 15:43:45;;;;;;;7.43;4.03;;;;;;;30.09;20.14;101079.13;5086112;28;20047;-78
2022/07/15 15:47:08;;;;;;;6.05;1.73;;;;;;;30.48;19.56;101076.97;5090645;28;20501;-79
2022/07/15 15:50:13;;;;;;;3.45;1.20;;;;;;;29.62;20.20;101066.28;5088043;28;20075;-79
2022/07/15 15:53:22;;;;;;;4.20;1.08;;;;;;;31.07;19.07;101071.06;5089293;28;20050;-80
2022/07/15 15:56:28;;;;;;;5.47;1.35;;;;;;;29.60;20.37;101073.66;5087615;28;20090;-79
2022/07/15 16:03:16;;;;;;;;;;;;;;;;;;;;;
2022/07/15 16:06:24;;;;;;;6.78;1.10;;;;;;;28.79;21.85;101068.34;5098626;27;20096;-79
2022/07/15 16:09:33;;;;;;;4.03;0.93;;;;;;;28.38;22.89;101076.00;5127581;27;20054;-79
2022/07/15 16:13:01;;;;;;;4.10;1.40;;;;;;;29.59;21.61;101062.06;5127590;27;20034;-79
2022/07/15 16:16:18;;;;;;;4.97;1.00;;;;;;;26.11;25.94;101069.72;5130773;27;20484;-79
2022/07/15 16:20:32;;;;;;;4.97;1.35;;;;;;;25.74;26.16;101069.16;5057027;27;20049;-79
2022/07/15 16:24:21;;;;;;;2.95;1.00;;;;;;;26.31;25.16;101062.97;5162650;22;20410;-62
2022/07/15 16:27:24;;;;;;;5.20;1.38;;;;;;;25.69;25.94;101058.13;5119123;27;20039;-64
2022/07/15 16:30:28;;;;;;;3.92;1.30;;;;;;;26.28;25.58;101060.63;5119543;27;20038;-64
2022/07/15 16:33:32;;;;;;;5.03;1.00;;;;;;;26.65;25.26;101060.09;5118090;27;20038;-62
2022/07/15 16:36:36;;;;;;;5.05;1.30;;;;;;;26.20;25.13;101056.13;5121208;27;20051;-64
2022/07/15 16:39:39;;;;;;;3.88;1.45;;;;;;;24.86;27.61;101049.16;5121189;27;20054;-63
2022/07/15 16:42:43;;;;;;;3.42;1.13;;;;;;;24.49;27.71;101047.63;5121220;27;20091;-62
2022/07/15 16:45:47;;;;;;;4.75;1.10;;;;;;;24.81;27.34;101047.78;5119028;27;20242;-63
2022/07/15 16:48:51;;;;;;;5.00;1.35;;;;;;;25.44;27.61;101045.69;5119299;27;20042;-65
2022/07/15 16:51:58;;;;;;;4.90;1.20;;;;;;;24.69;27.25;101051.75;5120109;27;20119;-63
2022/07/15 16:55:04;;;;;;;4.88;1.85;;;;;;;24.00;28.55;101057.94;5118760;27;20073;-64
2022/07/15 16:58:07;;;;;;;4.72;1.75;;;;;;;24.40;28.46;101053.88;5117953;27;20131;-63
2022/07/15 17:01:10;;;;;;;6.13;1.48;;;;;;;24.69;28.15;101048.22;5118851;27;20046;-63
2022/07/15 17:04:14;;;;;;;3.08;0.98;;;;;;;24.72;27.54;101047.91;5111206;27;20042;-67
2022/07/15 17:07:17;;;;;;;3.20;1.30;;;;;;;24.41;27.83;101051.09;5106631;28;20043;-65
2022/07/15 17:10:20;;;;;;;7.93;1.48;;;;;;;24.06;28.21;101058.16;5109469;28;20066;-64
2022/07/15 17:13:24;;;;;;;6.28;2.67;;;;;;;23.93;29.28;101055.06;5109462;28;20050;-63
2022/07/15 17:16:27;;;;;;;6.93;3.83;;;;;;;23.97;28.68;101052.91;5118384;27;20042;-63
2022/07/15 17:19:31;;;;;;;11.80;2.85;;;;;;;23.41;29.57;101063.69;5089700;28;20047;-62